createdAt,value
2018-07-26T00:02:20.747Z,2.20
2018-07-26T00:04:51.391Z,2.30
2018-07-26T00:07:22.239Z,2.40
2018-07-26T00:09:53.075Z,2.63
2018-07-26T00:12:25.944Z,2.23
2018-07-26T00:14:56.498Z,2.60
2018-07-26T00:17:27.055Z,2.63
2018-07-26T00:19:57.604Z,2.60
2018-07-26T00:22:28.885Z,2.73
2018-07-26T00:25:06.797Z,2.33
2018-07-26T00:27:37.362Z,4.23
2018-07-26T00:30:08.265Z,2.77
2018-07-26T00:32:38.920Z,2.33
2018-07-26T00:35:09.789Z,3.10
2018-07-26T00:37:40.505Z,2.10
2018-07-26T00:40:11.329Z,2.60
2018-07-26T00:42:41.495Z,2.27
2018-07-26T00:45:11.935Z,2.33
2018-07-26T00:47:42.711Z,2.70
2018-07-26T00:50:13.226Z,3.17
2018-07-26T00:52:43.409Z,2.30
2018-07-26T00:55:14.068Z,2.70
2018-07-26T00:57:44.691Z,2.80
2018-07-26T01:00:15.485Z,2.80
2018-07-26T01:02:46.176Z,2.03
2018-07-26T01:05:16.817Z,2.73
2018-07-26T01:07:47.483Z,2.47
2018-07-26T01:10:17.978Z,2.50
2018-07-26T01:12:48.215Z,2.50
2018-07-26T01:15:18.359Z,3.03
2018-07-26T01:17:48.776Z,2.90
2018-07-26T01:20:19.443Z,2.73
2018-07-26T01:22:50.142Z,2.40
2018-07-26T01:25:20.720Z,2.93
2018-07-26T01:27:51.371Z,3.00
2018-07-26T01:30:21.941Z,2.40
2018-07-26T01:32:52.694Z,2.83
2018-07-26T01:35:23.500Z,2.87
2018-07-26T01:37:54.169Z,2.57
2018-07-26T01:40:24.848Z,2.30
2018-07-26T01:44:11.928Z,2.80
2018-07-26T01:46:42.686Z,2.43
2018-07-26T01:49:12.907Z,2.77
2018-07-26T01:51:43.455Z,2.33
2018-07-26T01:54:13.720Z,3.13
2018-07-26T01:56:44.425Z,2.63
2018-07-26T01:59:15.339Z,2.77
2018-07-26T02:01:46.129Z,2.40
2018-07-26T02:04:16.753Z,2.47
2018-07-26T02:06:47.326Z,2.50
2018-07-26T02:09:17.922Z,3.10
2018-07-26T02:11:48.603Z,1.93
2018-07-26T02:14:24.026Z,2.40
2018-07-26T02:16:54.596Z,2.50
2018-07-26T02:19:25.317Z,2.10
2018-07-26T02:21:56.092Z,2.43
2018-07-26T02:24:26.853Z,2.90
2018-07-26T02:26:57.416Z,2.27
2018-07-26T02:29:28.050Z,2.57
2018-07-26T02:31:58.585Z,2.47
2018-07-26T02:34:29.209Z,2.37
2018-07-26T02:36:59.710Z,1.90
2018-07-26T02:39:30.373Z,2.40
2018-07-26T02:42:00.589Z,2.37
2018-07-26T02:44:31.099Z,2.10
2018-07-26T02:47:01.789Z,2.43
2018-07-26T02:49:32.466Z,2.13
2018-07-26T02:52:03.070Z,2.30
2018-07-26T02:54:34.004Z,2.23
2018-07-26T02:57:04.796Z,2.07
2018-07-26T02:59:35.039Z,2.00
2018-07-26T03:02:05.541Z,2.20
2018-07-26T03:04:36.191Z,1.77
2018-07-26T03:07:07.023Z,2.13
2018-07-26T03:09:37.648Z,2.23
2018-07-26T03:12:07.877Z,1.90
2018-07-26T03:14:42.908Z,2.37
2018-07-26T03:17:15.354Z,2.10
2018-07-26T03:19:46.088Z,2.33
2018-07-26T03:22:16.712Z,2.00
2018-07-26T03:24:50.153Z,1.90
2018-07-26T03:27:20.679Z,1.80
2018-07-26T03:29:50.898Z,1.93
2018-07-26T03:32:21.647Z,2.23
2018-07-26T03:34:52.373Z,1.83
2018-07-26T03:37:22.999Z,2.27
2018-07-26T03:39:54.002Z,1.83
2018-07-26T03:42:24.584Z,2.10
2018-07-26T03:44:55.123Z,1.93
2018-07-26T03:47:25.730Z,2.30
2018-07-26T03:49:56.350Z,2.20
2018-07-26T03:52:27.073Z,2.10
2018-07-26T03:54:57.667Z,2.50
2018-07-26T03:57:28.349Z,2.10
2018-07-26T03:59:58.613Z,1.93
2018-07-26T04:02:29.855Z,2.10
2018-07-26T04:05:00.460Z,2.20
2018-07-26T04:07:31.131Z,2.13
2018-07-26T04:10:01.640Z,2.30
2018-07-26T04:12:32.198Z,2.20
2018-07-26T04:15:02.749Z,2.37
2018-07-26T04:17:33.416Z,2.30
2018-07-26T04:20:03.767Z,2.50
2018-07-26T04:22:33.911Z,2.33
2018-07-26T04:25:04.391Z,2.23
2018-07-26T04:27:35.077Z,1.93
2018-07-26T04:30:06.314Z,1.80
2018-07-26T04:32:36.866Z,2.73
2018-07-26T04:35:07.597Z,2.47
2018-07-26T04:37:38.459Z,2.43
2018-07-26T04:40:09.193Z,2.30
2018-07-26T04:42:39.804Z,2.30
2018-07-26T04:45:10.460Z,2.30
2018-07-26T04:47:41.128Z,2.10
2018-07-26T04:50:11.838Z,1.87
2018-07-26T04:52:42.779Z,2.40
2018-07-26T04:55:17.592Z,2.13
2018-07-26T04:57:48.129Z,2.23
2018-07-26T05:00:18.776Z,2.30
2018-07-26T05:02:49.280Z,2.10
2018-07-26T05:05:19.945Z,2.20
2018-07-26T05:07:50.477Z,1.70
2018-07-26T05:10:21.187Z,2.20
2018-07-26T05:12:52.097Z,2.10
2018-07-26T05:15:23.072Z,1.90
2018-07-26T05:17:53.693Z,2.40
2018-07-26T05:20:24.291Z,2.23
2018-07-26T05:22:54.857Z,1.90
2018-07-26T05:25:25.374Z,2.03
2018-07-26T05:27:56.990Z,2.50
2018-07-26T05:30:27.563Z,2.60
2018-07-26T05:32:57.847Z,3.03
2018-07-26T05:35:28.581Z,2.20
2018-07-26T05:37:59.140Z,2.20
2018-07-26T05:40:29.930Z,2.27
2018-07-26T05:43:00.530Z,2.70
2018-07-26T05:45:31.207Z,1.80
2018-07-26T05:48:01.593Z,2.90
2018-07-26T05:50:31.823Z,1.83
2018-07-26T05:53:01.962Z,2.60
2018-07-26T05:55:32.462Z,1.80
2018-07-26T05:58:03.052Z,1.90
2018-07-26T06:00:33.729Z,2.03
2018-07-26T06:03:04.353Z,2.30
2018-07-26T06:05:35.486Z,1.80
2018-07-26T06:08:06.366Z,1.57
2018-07-26T06:10:36.956Z,2.00
2018-07-26T06:13:08.048Z,1.50
2018-07-26T06:15:38.646Z,1.73
2018-07-26T06:18:09.264Z,1.50
2018-07-26T06:20:40.047Z,1.70
2018-07-26T06:23:10.738Z,1.90
2018-07-26T06:25:41.389Z,1.60
2018-07-26T06:28:12.168Z,1.63
2018-07-26T06:30:42.717Z,1.50
2018-07-26T06:33:12.989Z,1.50
2018-07-26T06:35:43.646Z,1.60
2018-07-26T06:38:14.411Z,1.97
2018-07-26T06:40:44.751Z,1.80
2018-07-26T06:43:15.234Z,1.60
2018-07-26T06:45:45.807Z,1.60
2018-07-26T06:48:16.550Z,1.30
2018-07-26T06:50:47.150Z,1.73
2018-07-26T06:53:17.618Z,1.90
2018-07-26T06:55:48.020Z,1.57
2018-07-26T06:58:18.551Z,1.40
2018-07-26T07:00:49.189Z,1.87
2018-07-26T07:03:19.995Z,1.60
2018-07-26T07:05:50.639Z,1.40
2018-07-26T07:08:21.276Z,1.33
2018-07-26T07:10:52.006Z,1.37
2018-07-26T07:13:22.769Z,1.37
2018-07-26T07:15:53.467Z,1.73
2018-07-26T07:18:23.748Z,1.80
2018-07-26T07:20:54.290Z,1.77
2018-07-26T07:23:24.997Z,1.45
2018-07-26T07:25:55.832Z,1.40
2018-07-26T07:28:26.576Z,1.40
2018-07-26T07:30:57.327Z,1.20
2018-07-26T07:33:29.266Z,1.50
2018-07-26T07:36:00.031Z,1.90
2018-07-26T07:38:30.776Z,1.75
2018-07-26T07:41:01.351Z,1.05
2018-07-26T07:43:31.951Z,1.67
2018-07-26T07:46:02.699Z,1.50
2018-07-26T07:48:33.560Z,1.80
2018-07-26T07:51:04.369Z,1.43
2018-07-26T07:53:35.236Z,1.40
2018-07-26T07:56:06.183Z,1.65
2018-07-26T07:58:36.772Z,1.47
2018-07-26T08:01:09.185Z,1.70
2018-07-26T08:03:39.885Z,1.40
2018-07-26T08:06:10.504Z,1.30
2018-07-26T08:08:41.178Z,1.32
2018-07-26T08:11:11.834Z,1.55
2018-07-26T08:13:42.396Z,1.27
2018-07-26T08:16:13.130Z,1.87
2018-07-26T08:18:43.697Z,1.45
2018-07-26T08:21:14.498Z,1.50
2018-07-26T08:23:45.154Z,1.77
2018-07-26T08:26:15.753Z,1.43
2018-07-26T08:28:46.324Z,1.27
2018-07-26T08:31:16.909Z,1.40
2018-07-26T08:33:47.468Z,1.77
2018-07-26T08:36:18.014Z,1.17
2018-07-26T08:38:48.649Z,1.20
2018-07-26T08:41:19.421Z,1.72
2018-07-26T08:43:50.058Z,1.50
2018-07-26T08:46:20.605Z,1.42
2018-07-26T08:48:51.081Z,1.35
2018-07-26T08:51:21.561Z,1.30
2018-07-26T08:53:52.119Z,1.70
2018-07-26T08:56:22.826Z,1.27
2018-07-26T08:58:53.495Z,1.22
2018-07-26T09:01:24.224Z,1.30
2018-07-26T09:03:54.825Z,1.30
2018-07-26T09:06:26.325Z,1.20
2018-07-26T09:08:57.474Z,1.52
2018-07-26T09:11:28.232Z,1.25
2018-07-26T09:13:59.008Z,1.40
2018-07-26T09:16:29.731Z,1.50
2018-07-26T09:19:00.314Z,1.55
2018-07-26T09:21:31.012Z,1.27
2018-07-26T09:24:01.936Z,1.20
2018-07-26T09:26:32.467Z,1.20
2018-07-26T09:29:03.357Z,1.15
2018-07-26T09:31:34.275Z,1.62
2018-07-26T09:34:04.962Z,3.42
2018-07-26T09:36:35.638Z,1.47
2018-07-26T09:39:15.494Z,1.40
2018-07-26T09:41:46.085Z,1.42
2018-07-26T09:44:17.134Z,1.30
2018-07-26T09:46:47.770Z,1.57
2018-07-26T09:49:18.552Z,1.42
2018-07-26T09:51:49.127Z,1.47
2018-07-26T09:54:19.886Z,1.30
2018-07-26T09:56:50.459Z,1.50
2018-07-26T09:59:21.276Z,1.20
2018-07-26T10:01:52.017Z,1.32
2018-07-26T10:04:22.845Z,1.30
2018-07-26T10:06:53.511Z,1.47
2018-07-26T10:09:24.447Z,1.47
2018-07-26T10:11:55.118Z,1.82
2018-07-26T10:14:25.871Z,1.10
2018-07-26T10:16:56.478Z,1.10
2018-07-26T10:19:27.061Z,1.12
2018-07-26T10:21:57.700Z,1.10
2018-07-26T10:24:28.452Z,1.02
2018-07-26T10:26:59.069Z,1.27
2018-07-26T10:29:29.806Z,1.02
2018-07-26T10:32:00.473Z,1.43
2018-07-26T10:34:31.386Z,1.37
2018-07-26T10:37:02.137Z,1.20
2018-07-26T10:39:32.347Z,1.23
2018-07-26T10:42:02.829Z,1.23
2018-07-26T10:44:33.478Z,1.23
2018-07-26T10:47:04.197Z,2.57
2018-07-26T10:49:34.996Z,1.15
2018-07-26T10:52:05.742Z,1.17
2018-07-26T10:54:36.449Z,1.60
2018-07-26T10:57:07.655Z,1.02
2018-07-26T10:59:38.125Z,1.07
2018-07-26T11:02:09.232Z,1.40
2018-07-26T11:04:40.224Z,1.47
2018-07-26T11:07:11.404Z,0.85
2018-07-26T11:09:42.130Z,1.30
2018-07-26T11:12:12.714Z,1.10
2018-07-26T11:14:43.451Z,1.43
2018-07-26T11:17:14.119Z,1.20
2018-07-26T11:19:44.696Z,1.07
2018-07-26T11:22:15.385Z,1.57
2018-07-26T11:25:00.583Z,2.40
2018-07-26T11:27:31.396Z,1.53
2018-07-26T11:30:02.066Z,1.37
2018-07-26T11:32:32.496Z,1.40
2018-07-26T11:35:03.158Z,1.20
2018-07-26T11:37:34.294Z,1.33
2018-07-26T11:40:05.256Z,1.40
2018-07-26T11:42:36.508Z,1.37
2018-07-26T11:45:09.157Z,1.80
2018-07-26T11:47:40.824Z,1.77
2018-07-26T11:50:12.826Z,2.13
2018-07-26T11:52:43.849Z,1.73
2018-07-26T11:55:14.322Z,1.90
2018-07-26T11:57:45.177Z,1.80
2018-07-26T12:00:16.169Z,1.70
2018-07-26T12:02:48.987Z,1.30
2018-07-26T12:05:19.853Z,1.90
2018-07-26T12:07:51.111Z,1.30
2018-07-26T12:10:22.118Z,1.70
2018-07-26T12:12:52.565Z,1.30
2018-07-26T12:15:23.260Z,1.80
2018-07-26T12:17:53.815Z,1.67
2018-07-26T12:20:24.340Z,1.47
2018-07-26T12:22:54.965Z,1.30
2018-07-26T12:25:25.608Z,1.70
2018-07-26T12:27:56.231Z,1.70
2018-07-26T12:30:26.785Z,2.00
2018-07-26T12:32:57.519Z,1.30
2018-07-26T12:35:28.184Z,1.80
2018-07-26T12:37:58.901Z,2.30
2018-07-26T12:40:29.453Z,1.40
2018-07-26T12:43:00.182Z,1.40
2018-07-26T12:45:30.856Z,1.37
2018-07-26T12:48:01.556Z,1.70
2018-07-26T12:50:32.555Z,1.47
2018-07-26T12:53:03.297Z,1.47
2018-07-26T12:55:33.910Z,1.00
2018-07-26T12:58:04.608Z,1.33
2018-07-26T13:00:35.518Z,1.20
2018-07-26T13:03:06.226Z,1.60
2018-07-26T13:05:36.772Z,1.50
2018-07-26T13:08:07.492Z,1.43
2018-07-26T13:10:38.126Z,1.43
2018-07-26T13:13:08.665Z,1.83
2018-07-26T13:15:39.468Z,1.20
2018-07-26T13:18:10.091Z,1.63
2018-07-26T13:20:40.885Z,1.20
2018-07-26T13:23:11.490Z,1.50
2018-07-26T13:25:43.044Z,1.20
2018-07-26T13:28:13.848Z,1.40
2018-07-26T13:30:44.484Z,1.60
2018-07-26T13:33:14.960Z,1.30
2018-07-26T13:35:45.672Z,1.43
2018-07-26T13:38:16.272Z,1.23
2018-07-26T13:40:46.755Z,1.20
2018-07-26T13:43:17.530Z,1.50
2018-07-26T13:45:48.190Z,1.67
2018-07-26T13:48:18.853Z,1.70
2018-07-26T13:50:49.548Z,1.27
2018-07-26T13:53:20.492Z,1.20
2018-07-26T13:55:51.735Z,1.40
2018-07-26T13:58:22.668Z,1.30
2018-07-26T14:00:53.223Z,1.23
2018-07-26T14:03:23.956Z,0.97
2018-07-26T14:05:54.441Z,1.23
2018-07-26T14:08:24.957Z,1.40
2018-07-26T14:10:55.528Z,0.87
2018-07-26T14:13:26.153Z,1.00
2018-07-26T14:15:56.991Z,0.90
2018-07-26T14:18:27.744Z,0.80
2018-07-26T14:20:58.297Z,0.70
2018-07-26T14:23:34.247Z,0.93
2018-07-26T14:26:05.170Z,1.00
2018-07-26T14:28:36.180Z,0.83
2018-07-26T14:31:07.628Z,1.03
2018-07-26T14:33:38.544Z,0.90
2018-07-26T14:36:09.128Z,1.13
2018-07-26T14:38:39.971Z,1.10
2018-07-26T14:41:10.610Z,1.30
2018-07-26T14:43:41.223Z,1.07
2018-07-26T14:46:11.810Z,1.10
2018-07-26T14:48:42.494Z,1.07
2018-07-26T14:51:13.932Z,1.10
2018-07-26T14:53:44.556Z,1.00
2018-07-26T14:56:15.178Z,0.80
2018-07-26T14:58:47.338Z,1.00
2018-07-26T15:01:17.794Z,1.00
2018-07-26T15:03:48.334Z,1.00
2018-07-26T15:06:19.046Z,0.83
2018-07-26T15:08:49.514Z,1.00
2018-07-26T15:11:20.123Z,1.30
2018-07-26T15:13:52.028Z,1.20
2018-07-26T15:16:22.693Z,1.03
2018-07-26T15:18:53.324Z,1.17
2018-07-26T15:21:23.535Z,1.30
2018-07-26T15:23:53.953Z,1.33
2018-07-26T15:26:24.686Z,1.33
2018-07-26T15:28:55.241Z,1.10
2018-07-26T15:31:25.920Z,1.03
2018-07-26T15:33:56.596Z,1.17
2018-07-26T15:36:27.635Z,1.40
2018-07-26T15:38:58.271Z,1.60
2018-07-26T15:41:28.837Z,1.10
2018-07-26T15:43:59.385Z,1.13
2018-07-26T15:46:29.961Z,1.27
2018-07-26T15:49:00.612Z,1.20
2018-07-26T15:51:31.260Z,1.10
2018-07-26T15:54:01.932Z,1.03
2018-07-26T15:56:32.713Z,1.43
2018-07-26T15:59:03.400Z,1.03
2018-07-26T16:01:34.079Z,1.60
2018-07-26T16:04:04.825Z,1.70
2018-07-26T16:06:35.428Z,3.67
2018-07-26T16:09:10.036Z,2.63
2018-07-26T16:11:41.023Z,1.43
2018-07-26T16:14:12.172Z,1.30
2018-07-26T16:16:43.229Z,1.00
2018-07-26T16:19:13.748Z,1.53
2018-07-26T16:21:44.616Z,1.23
2018-07-26T16:24:15.298Z,1.33
2018-07-26T16:26:45.952Z,1.40
2018-07-26T16:29:16.598Z,1.27
2018-07-26T16:31:47.280Z,1.27
2018-07-26T16:34:17.530Z,1.43
2018-07-26T16:36:48.058Z,1.50
2018-07-26T16:39:18.789Z,1.60
2018-07-26T16:41:49.436Z,1.67
2018-07-26T16:44:20.062Z,1.63
2018-07-26T16:46:50.545Z,1.23
2018-07-26T16:49:21.252Z,1.77
2018-07-26T16:51:54.147Z,1.10
2018-07-26T16:54:24.931Z,2.10
2018-07-26T16:56:55.493Z,1.80
2018-07-26T16:59:26.207Z,1.50
2018-07-26T17:01:56.841Z,1.33
2018-07-26T17:04:27.754Z,1.20
2018-07-26T17:06:58.616Z,1.37
2018-07-26T17:09:29.516Z,1.70
2018-07-26T17:12:00.082Z,1.80
2018-07-26T17:14:30.817Z,1.50
2018-07-26T17:17:01.432Z,1.50
2018-07-26T17:19:32.474Z,2.23
2018-07-26T17:22:03.200Z,1.50
2018-07-26T17:24:33.875Z,1.87
2018-07-26T17:27:04.460Z,1.13
2018-07-26T17:29:34.936Z,1.67
2018-07-26T17:32:06.031Z,1.60
2018-07-26T17:34:36.694Z,2.00
2018-07-26T17:37:07.624Z,4.83
2018-07-26T17:39:38.598Z,6.33
2018-07-26T17:42:09.306Z,3.43
2018-07-26T17:44:40.456Z,3.13
2018-07-26T17:47:11.292Z,5.50
2018-07-26T17:49:42.082Z,2.60
2018-07-26T17:52:13.023Z,2.30
2018-07-26T17:54:43.556Z,1.47
2018-07-26T17:57:14.197Z,2.23
2018-07-26T17:59:44.874Z,1.70
2018-07-26T18:02:15.477Z,1.60
2018-07-26T18:04:46.241Z,2.00
2018-07-26T18:07:17.012Z,1.30
2018-07-26T18:09:47.642Z,1.23
2018-07-26T18:12:18.194Z,1.13
2018-07-26T18:14:48.751Z,1.23
2018-07-26T18:17:19.335Z,1.10
2018-07-26T18:19:50.137Z,1.60
2018-07-26T18:22:20.705Z,1.63
2018-07-26T18:24:50.872Z,1.40
2018-07-26T18:27:22.094Z,1.73
2018-07-26T18:29:52.538Z,1.60
2018-07-26T18:32:23.166Z,1.50
2018-07-26T18:34:53.783Z,1.27
2018-07-26T18:37:24.458Z,1.60
2018-07-26T18:39:55.367Z,2.60
2018-07-26T18:42:26.018Z,1.37
2018-07-26T18:44:56.743Z,1.50
2018-07-26T18:47:27.248Z,1.60
2018-07-26T18:49:57.908Z,2.30
2018-07-26T18:52:28.506Z,1.60
2018-07-26T18:54:59.093Z,1.70
2018-07-26T18:57:30.536Z,1.53
2018-07-26T19:00:01.075Z,1.77
2018-07-26T19:02:31.758Z,1.80
2018-07-26T19:05:02.430Z,1.80
2018-07-26T19:07:32.934Z,2.00
2018-07-26T19:10:03.810Z,1.50
2018-07-26T19:12:34.466Z,2.10
2018-07-26T19:15:06.890Z,1.60
2018-07-26T19:17:37.816Z,1.40
2018-07-26T19:20:10.111Z,1.90
2018-07-26T19:22:40.905Z,1.20
2018-07-26T19:25:12.444Z,1.70
2018-07-26T19:27:43.567Z,1.63
2018-07-26T19:30:14.999Z,1.90
2018-07-26T19:32:45.567Z,1.90
2018-07-26T19:35:16.272Z,1.90
2018-07-26T19:37:47.786Z,1.70
2018-07-26T19:40:18.501Z,1.40
2018-07-26T19:42:49.221Z,1.87
2018-07-26T19:45:19.740Z,1.70
2018-07-26T19:47:50.261Z,1.70
2018-07-26T19:50:21.009Z,1.87
2018-07-26T19:52:51.448Z,2.20
2018-07-26T19:55:21.705Z,1.73
2018-07-26T19:57:52.177Z,1.60
2018-07-26T20:00:22.590Z,4.00
2018-07-26T20:02:59.917Z,2.10
2018-07-26T20:05:30.816Z,1.63
2018-07-26T20:08:01.641Z,1.67
2018-07-26T20:10:32.496Z,1.67
2018-07-26T20:13:03.609Z,2.00
2018-07-26T20:15:34.609Z,1.57
2018-07-26T20:18:05.346Z,1.80
2018-07-26T20:20:35.964Z,1.80
2018-07-26T20:23:06.762Z,2.10
2018-07-26T20:25:46.325Z,2.13
2018-07-26T20:28:17.596Z,1.70
2018-07-26T20:30:48.261Z,2.00
2018-07-26T20:33:18.962Z,1.63
2018-07-26T20:35:49.546Z,1.80
2018-07-26T20:38:20.732Z,2.27
2018-07-26T20:40:51.478Z,2.10
2018-07-26T20:43:22.009Z,1.50
2018-07-26T20:45:52.660Z,1.93
2018-07-26T20:48:24.053Z,1.80
2018-07-26T20:50:54.529Z,2.17
2018-07-26T20:53:25.380Z,1.93
2018-07-26T20:55:56.291Z,2.13
2018-07-26T20:58:26.920Z,2.10
2018-07-26T21:00:57.723Z,1.80
2018-07-26T21:03:28.262Z,1.87
2018-07-26T21:05:58.885Z,2.47
2018-07-26T21:08:29.057Z,3.00
2018-07-26T21:10:59.670Z,1.80
2018-07-26T21:13:30.364Z,1.77
2018-07-26T21:16:01.111Z,2.20
2018-07-26T21:18:34.569Z,2.90
2018-07-26T21:21:05.268Z,2.30
2018-07-26T21:23:35.906Z,2.10
2018-07-26T21:26:07.761Z,2.10
2018-07-26T21:28:38.274Z,2.10
2018-07-26T21:31:08.936Z,2.37
2018-07-26T21:33:39.553Z,3.13
2018-07-26T21:36:10.168Z,2.50
2018-07-26T21:38:40.471Z,2.10
2018-07-26T21:41:11.062Z,2.20
2018-07-26T21:43:41.754Z,2.53
2018-07-26T21:46:12.312Z,2.47
2018-07-26T21:48:42.850Z,2.20
2018-07-26T21:51:13.520Z,2.57
2018-07-26T21:53:44.187Z,2.03
2018-07-26T21:56:15.805Z,2.47
2018-07-26T21:58:46.839Z,2.50
2018-07-26T22:01:17.535Z,2.47
2018-07-26T22:03:48.171Z,2.47
2018-07-26T22:06:18.866Z,2.40
2018-07-26T22:08:49.684Z,2.30
2018-07-26T22:11:21.864Z,2.37
2018-07-26T22:13:53.530Z,2.47
2018-07-26T22:16:24.154Z,2.57
2018-07-26T22:18:54.824Z,2.43
2018-07-26T22:21:25.403Z,2.40
2018-07-26T22:23:56.073Z,2.80
2018-07-26T22:26:27.110Z,2.70
2018-07-26T22:28:57.842Z,2.03
2018-07-26T22:31:29.050Z,2.30
2018-07-26T22:33:59.613Z,2.07
2018-07-26T22:36:29.870Z,2.40
2018-07-26T22:39:00.132Z,2.10
2018-07-26T22:41:31.400Z,2.37
2018-07-26T22:44:02.276Z,2.73
2018-07-26T22:46:32.973Z,2.10
2018-07-26T22:49:03.860Z,2.23
2018-07-26T22:51:34.465Z,2.37
2018-07-26T22:54:05.041Z,2.70
2018-07-26T22:56:35.615Z,2.57
2018-07-26T22:59:05.858Z,2.43
2018-07-26T23:01:35.887Z,2.07
2018-07-26T23:04:06.685Z,2.10
2018-07-26T23:06:37.261Z,2.17
2018-07-26T23:09:10.829Z,2.30
2018-07-26T23:11:41.300Z,2.30
2018-07-26T23:14:11.885Z,2.60
2018-07-26T23:16:42.099Z,2.23
2018-07-26T23:19:12.636Z,1.90
2018-07-26T23:21:42.994Z,2.63
2018-07-26T23:24:13.523Z,2.13
2018-07-26T23:26:44.205Z,2.03
2018-07-26T23:29:14.691Z,2.37
2018-07-26T23:31:45.341Z,2.93
2018-07-26T23:34:16.117Z,3.03
2018-07-26T23:36:46.615Z,2.13
2018-07-26T23:39:17.304Z,2.50
2018-07-26T23:41:47.780Z,2.37
2018-07-26T23:44:18.256Z,2.90
2018-07-26T23:46:48.967Z,2.60
2018-07-26T23:49:19.200Z,2.77
2018-07-26T23:51:50.332Z,2.87
2018-07-26T23:54:20.654Z,2.63
2018-07-26T23:56:57.975Z,2.60
2018-07-26T23:59:28.411Z,2.13
